createdAt,value
2019-03-29T00:02:34.037Z,81.50
2019-03-29T00:05:12.747Z,81.30
2019-03-29T00:08:18.678Z,81.40
2019-03-29T00:11:03.440Z,81.40
2019-03-29T00:13:49.293Z,81.40
2019-03-29T00:16:26.009Z,81.50
2019-03-29T00:19:01.326Z,81.60
2019-03-29T00:21:37.232Z,81.60
2019-03-29T00:24:33.400Z,81.70
2019-03-29T00:27:12.820Z,81.70
2019-03-29T00:29:49.985Z,81.70
2019-03-29T00:32:29.251Z,81.80
2019-03-29T00:35:06.014Z,81.90
2019-03-29T00:37:52.962Z,81.80
2019-03-29T00:40:17.742Z,81.90
2019-03-29T00:42:53.798Z,81.90
2019-03-29T00:45:38.520Z,81.80
2019-03-29T00:48:22.196Z,81.60
2019-03-29T00:51:12.162Z,81.60
2019-03-29T00:53:46.041Z,81.60
2019-03-29T00:56:20.086Z,81.50
2019-03-29T00:58:58.392Z,81.30
2019-03-29T01:01:29.841Z,81.20
2019-03-29T01:04:11.515Z,81.20
2019-03-29T01:06:46.379Z,81.20
2019-03-29T01:09:24.690Z,81.20
2019-03-29T01:11:58.588Z,81.30
2019-03-29T01:14:30.742Z,81.40
2019-03-29T01:17:07.473Z,81.30
2019-03-29T01:19:43.259Z,81.20
2019-03-29T01:22:20.237Z,81.30
2019-03-29T01:24:51.580Z,81.30
2019-03-29T01:27:24.895Z,81.00
2019-03-29T01:30:04.803Z,81.00
2019-03-29T01:32:42.130Z,81.10
2019-03-29T01:35:13.365Z,81.10
2019-03-29T01:37:52.613Z,81.10
2019-03-29T01:40:28.119Z,81.00
2019-03-29T01:43:02.364Z,81.00
2019-03-29T01:45:33.836Z,81.70
2019-03-29T01:48:08.536Z,80.90
2019-03-29T01:50:41.219Z,80.90
2019-03-29T01:53:12.686Z,80.80
2019-03-29T01:55:48.762Z,80.80
2019-03-29T01:58:20.432Z,80.80
2019-03-29T02:00:52.986Z,80.70
2019-03-29T02:03:26.012Z,80.70
2019-03-29T02:05:58.834Z,80.60
2019-03-29T02:08:35.839Z,80.60
2019-03-29T02:11:09.299Z,80.50
2019-03-29T02:13:41.860Z,80.70
2019-03-29T02:16:15.397Z,80.70
2019-03-29T02:18:51.965Z,80.70
2019-03-29T02:21:31.814Z,80.70
2019-03-29T02:24:10.031Z,80.70
2019-03-29T02:26:50.468Z,80.70
2019-03-29T02:29:24.587Z,80.70
2019-03-29T02:31:57.032Z,80.70
2019-03-29T02:34:28.720Z,80.60
2019-03-29T02:37:05.218Z,80.80
2019-03-29T02:39:42.771Z,80.90
2019-03-29T02:42:11.563Z,81.00
2019-03-29T02:44:43.238Z,81.00
2019-03-29T02:47:17.865Z,81.00
2019-03-29T02:49:54.222Z,81.10
2019-03-29T02:52:27.805Z,81.20
2019-03-29T02:54:59.895Z,81.30
2019-03-29T02:57:32.218Z,81.30
2019-03-29T03:00:10.580Z,81.30
2019-03-29T03:02:43.060Z,81.50
2019-03-29T03:05:16.021Z,81.50
2019-03-29T03:07:49.015Z,81.40
2019-03-29T03:10:23.420Z,81.30
2019-03-29T03:12:57.331Z,81.20
2019-03-29T03:15:30.676Z,81.20
2019-03-29T03:18:07.795Z,81.20
2019-03-29T03:20:40.598Z,81.20
2019-03-29T03:23:14.732Z,81.20
2019-03-29T03:25:46.378Z,81.20
2019-03-29T03:28:21.257Z,81.20
2019-03-29T03:30:55.213Z,81.10
2019-03-29T03:33:26.986Z,81.00
2019-03-29T03:36:00.539Z,81.00
2019-03-29T03:38:36.546Z,81.00
2019-03-29T03:41:12.266Z,81.00
2019-03-29T03:43:44.223Z,80.80
2019-03-29T03:46:15.791Z,80.90
2019-03-29T03:48:50.005Z,80.80
2019-03-29T03:51:23.574Z,80.60
2019-03-29T03:53:58.922Z,80.60
2019-03-29T03:56:39.326Z,80.70
2019-03-29T03:59:17.036Z,80.00
2019-03-29T04:01:48.861Z,80.40
2019-03-29T04:04:23.613Z,80.40
2019-03-29T04:06:55.868Z,80.30
2019-03-29T04:09:49.441Z,80.20
2019-03-29T04:12:12.585Z,80.20
2019-03-29T04:14:47.138Z,80.20
2019-03-29T04:17:23.468Z,80.20
2019-03-29T04:19:59.340Z,80.10
2019-03-29T04:22:37.310Z,80.10
2019-03-29T04:25:11.936Z,80.10
2019-03-29T04:27:51.858Z,80.30
2019-03-29T04:30:26.434Z,80.10
2019-03-29T04:33:05.127Z,80.10
2019-03-29T04:35:39.823Z,80.00
2019-03-29T04:38:22.265Z,80.10
2019-03-29T04:40:58.686Z,80.00
2019-03-29T04:43:36.730Z,80.00
2019-03-29T04:46:18.542Z,80.00
2019-03-29T04:49:14.406Z,80.00
2019-03-29T04:51:47.548Z,79.90
2019-03-29T04:54:22.320Z,80.00
2019-03-29T04:56:55.388Z,80.10
2019-03-29T04:59:29.485Z,80.10
2019-03-29T05:02:04.627Z,80.20
2019-03-29T05:04:56.875Z,80.20
2019-03-29T05:07:28.683Z,80.20
2019-03-29T05:10:20.010Z,80.50
2019-03-29T05:12:41.276Z,80.40
2019-03-29T05:15:13.701Z,80.30
2019-03-29T05:17:47.738Z,80.30
2019-03-29T05:20:19.718Z,80.30
2019-03-29T05:22:52.095Z,80.30
2019-03-29T05:25:25.575Z,80.30
2019-03-29T05:27:58.051Z,80.20
2019-03-29T05:30:35.588Z,80.30
2019-03-29T05:33:19.803Z,80.30
2019-03-29T05:35:51.211Z,80.20
2019-03-29T05:38:31.953Z,80.30
2019-03-29T05:41:11.800Z,80.50
2019-03-29T05:44:00.438Z,80.50
2019-03-29T05:46:35.969Z,80.50
2019-03-29T05:49:16.091Z,80.60
2019-03-29T05:51:53.073Z,80.50
2019-03-29T05:54:26.204Z,80.50
2019-03-29T05:56:57.663Z,80.40
2019-03-29T05:59:29.486Z,80.50
2019-03-29T06:02:02.381Z,80.50
2019-03-29T06:04:36.723Z,80.40
2019-03-29T06:07:11.204Z,80.40
2019-03-29T06:10:02.115Z,80.50
2019-03-29T06:12:35.805Z,80.50
2019-03-29T06:15:09.855Z,80.70
2019-03-29T06:17:49.008Z,80.80
2019-03-29T06:20:22.757Z,80.80
2019-03-29T06:22:59.142Z,80.70
2019-03-29T06:25:35.405Z,80.60
2019-03-29T06:28:08.750Z,80.70
2019-03-29T06:30:51.835Z,80.70
2019-03-29T06:33:23.796Z,80.90
2019-03-29T06:35:58.712Z,80.80
2019-03-29T06:38:39.789Z,80.80
2019-03-29T06:41:12.834Z,80.80
2019-03-29T06:43:57.083Z,80.80
2019-03-29T06:46:29.222Z,80.90
2019-03-29T06:49:00.777Z,80.70
2019-03-29T06:51:34.023Z,80.80
2019-03-29T06:54:11.006Z,80.70
2019-03-29T06:56:49.315Z,80.50
2019-03-29T06:59:23.349Z,80.50
2019-03-29T07:01:57.755Z,80.40
2019-03-29T07:04:29.399Z,80.40
2019-03-29T07:07:00.978Z,80.30
2019-03-29T07:09:50.850Z,80.40
2019-03-29T07:12:22.297Z,80.40
2019-03-29T07:14:55.284Z,80.00
2019-03-29T07:17:26.942Z,79.80
2019-03-29T07:20:01.150Z,80.40
2019-03-29T07:22:34.631Z,79.30
2019-03-29T07:25:10.274Z,79.20
2019-03-29T07:27:45.796Z,79.30
2019-03-29T07:30:17.015Z,79.10
2019-03-29T07:32:50.978Z,79.10
2019-03-29T07:35:25.486Z,78.80
2019-03-29T07:37:58.957Z,78.80
2019-03-29T07:40:30.740Z,78.90
2019-03-29T07:43:04.447Z,78.90
2019-03-29T07:45:39.055Z,78.90
2019-03-29T07:48:12.040Z,78.60
2019-03-29T07:50:48.900Z,78.30
2019-03-29T07:53:20.441Z,78.30
2019-03-29T07:56:03.303Z,78.30
2019-03-29T07:58:39.966Z,78.00
2019-03-29T08:01:12.103Z,78.10
2019-03-29T08:03:43.951Z,78.10
2019-03-29T08:06:22.028Z,77.80
2019-03-29T08:08:53.526Z,77.30
2019-03-29T08:11:27.627Z,77.20
2019-03-29T08:14:00.850Z,76.70
2019-03-29T08:16:36.070Z,76.10
2019-03-29T08:19:09.979Z,75.90
2019-03-29T08:21:47.195Z,75.60
2019-03-29T08:24:20.622Z,75.50
2019-03-29T08:26:53.606Z,75.20
2019-03-29T08:29:25.001Z,74.80
2019-03-29T08:32:01.765Z,74.10
2019-03-29T08:34:39.298Z,73.80
2019-03-29T08:37:11.705Z,73.50
2019-03-29T08:39:50.391Z,73.00
2019-03-29T08:42:21.937Z,72.90
2019-03-29T08:45:19.230Z,72.70
2019-03-29T08:48:11.736Z,72.50
2019-03-29T08:51:02.283Z,72.20
2019-03-29T08:53:35.903Z,72.10
2019-03-29T08:56:15.458Z,71.80
2019-03-29T08:58:50.324Z,71.70
2019-03-29T09:01:26.957Z,71.60
2019-03-29T09:04:21.696Z,71.30
2019-03-29T09:06:56.223Z,71.20
2019-03-29T09:09:28.360Z,70.80
2019-03-29T09:12:13.645Z,70.10
2019-03-29T09:14:48.741Z,69.90
2019-03-29T09:17:55.727Z,69.40
2019-03-29T09:20:35.880Z,69.30
2019-03-29T09:23:15.244Z,68.70
2019-03-29T09:25:54.348Z,68.40
2019-03-29T09:28:35.330Z,67.80
2019-03-29T09:31:08.206Z,67.20
2019-03-29T09:33:50.723Z,66.50
2019-03-29T09:36:28.828Z,65.60
2019-03-29T09:39:06.920Z,64.50
2019-03-29T09:41:42.892Z,64.10
2019-03-29T09:44:25.014Z,63.90
2019-03-29T09:46:56.668Z,62.80
2019-03-29T09:49:39.703Z,62.60
2019-03-29T09:52:15.979Z,61.80
2019-03-29T09:54:48.924Z,61.70
2019-03-29T09:57:36.985Z,60.70
2019-03-29T09:59:57.014Z,60.40
2019-03-29T10:02:30.431Z,60.20
2019-03-29T10:05:31.016Z,60.30
2019-03-29T10:08:06.497Z,60.00
2019-03-29T10:11:06.939Z,59.90
2019-03-29T10:14:33.471Z,59.20
2019-03-29T10:17:06.978Z,58.50
2019-03-29T10:19:42.372Z,58.70
2019-03-29T10:22:18.288Z,58.30
2019-03-29T10:25:02.913Z,58.10
2019-03-29T10:27:51.287Z,57.80
2019-03-29T10:30:59.179Z,57.70
2019-03-29T10:33:40.570Z,57.60
2019-03-29T10:36:17.844Z,57.30
2019-03-29T10:39:00.529Z,57.40
2019-03-29T10:41:34.606Z,57.60
2019-03-29T10:44:37.172Z,57.50
2019-03-29T10:47:19.771Z,57.60
2019-03-29T10:50:04.933Z,57.60
2019-03-29T10:52:37.916Z,57.20
2019-03-29T10:55:11.770Z,56.60
2019-03-29T10:57:48.708Z,56.00
2019-03-29T11:00:40.220Z,55.70
2019-03-29T11:03:12.215Z,55.40
2019-03-29T11:06:07.535Z,55.20
2019-03-29T11:08:54.007Z,54.80
2019-03-29T11:11:28.083Z,54.50
2019-03-29T11:14:34.945Z,54.30
2019-03-29T11:17:17.203Z,54.40
2019-03-29T11:19:53.739Z,54.10
2019-03-29T11:22:36.205Z,53.80
2019-03-29T11:25:12.219Z,53.70
2019-03-29T11:27:47.569Z,53.40
2019-03-29T11:30:21.150Z,52.90
2019-03-29T11:32:55.461Z,52.70
2019-03-29T11:35:27.574Z,52.50
2019-03-29T11:37:59.548Z,52.30
2019-03-29T11:40:35.478Z,51.10
2019-03-29T11:43:07.574Z,51.40
2019-03-29T11:45:44.638Z,51.30
2019-03-29T11:48:22.450Z,51.20
2019-03-29T11:50:59.414Z,51.10
2019-03-29T11:53:33.015Z,51.20
2019-03-29T11:56:17.897Z,50.90
2019-03-29T11:58:52.045Z,50.80
2019-03-29T12:01:28.978Z,50.60
2019-03-29T12:04:05.555Z,50.30
2019-03-29T12:06:48.456Z,50.20
2019-03-29T12:09:20.956Z,50.20
2019-03-29T12:12:13.022Z,50.00
2019-03-29T12:14:49.841Z,50.00
2019-03-29T12:17:33.798Z,50.00
2019-03-29T12:20:07.344Z,50.10
2019-03-29T12:22:42.364Z,50.20
2019-03-29T12:25:15.582Z,49.80
2019-03-29T12:28:17.166Z,49.30
2019-03-29T12:30:52.391Z,48.90
2019-03-29T12:33:26.406Z,48.90
2019-03-29T12:35:58.309Z,48.50
2019-03-29T12:38:38.461Z,48.10
2019-03-29T12:41:10.404Z,48.00
2019-03-29T12:43:54.841Z,48.10
2019-03-29T12:46:25.270Z,47.40
2019-03-29T12:49:00.052Z,48.00
2019-03-29T12:51:35.429Z,47.90
2019-03-29T12:54:17.187Z,47.90
2019-03-29T12:56:54.305Z,47.70
2019-03-29T12:59:29.137Z,47.70
2019-03-29T13:02:00.906Z,48.00
2019-03-29T13:04:47.557Z,47.90
2019-03-29T13:07:19.259Z,47.60
2019-03-29T13:09:52.967Z,47.70
2019-03-29T13:12:32.953Z,48.20
2019-03-29T13:15:07.805Z,48.30
2019-03-29T13:18:02.541Z,48.60
2019-03-29T13:21:02.880Z,48.60
2019-03-29T13:23:42.967Z,48.60
2019-03-29T13:26:16.123Z,48.60
2019-03-29T13:28:56.775Z,48.80
2019-03-29T13:31:30.187Z,48.50
2019-03-29T13:34:19.443Z,48.10
2019-03-29T13:36:56.907Z,47.90
2019-03-29T13:40:25.116Z,48.00
2019-03-29T13:42:56.693Z,47.90
2019-03-29T13:45:35.615Z,47.70
2019-03-29T13:48:10.153Z,47.80
2019-03-29T13:50:43.855Z,47.70
2019-03-29T13:53:19.675Z,47.90
2019-03-29T13:56:15.768Z,47.60
2019-03-29T13:58:50.837Z,47.60
2019-03-29T14:01:24.876Z,47.50
2019-03-29T14:03:58.052Z,47.70
2019-03-29T14:07:35.767Z,47.80
2019-03-29T14:10:16.324Z,47.80
2019-03-29T14:12:55.931Z,47.60
2019-03-29T14:15:27.511Z,47.60
2019-03-29T14:18:07.261Z,47.60
2019-03-29T14:20:45.461Z,47.60
2019-03-29T14:23:19.876Z,47.70
2019-03-29T14:25:55.938Z,47.70
2019-03-29T14:28:33.925Z,47.80
2019-03-29T14:31:15.287Z,47.50
2019-03-29T14:33:50.753Z,47.70
2019-03-29T14:36:32.463Z,47.80
2019-03-29T14:39:23.370Z,47.70
2019-03-29T14:41:58.004Z,47.80
2019-03-29T14:44:33.873Z,47.70
2019-03-29T14:47:22.491Z,47.60
2019-03-29T14:50:07.624Z,47.60
2019-03-29T14:52:48.234Z,47.90
2019-03-29T14:55:24.429Z,47.60
2019-03-29T14:57:56.553Z,47.70
2019-03-29T15:00:43.928Z,47.60
2019-03-29T15:03:42.688Z,47.80
2019-03-29T15:06:52.686Z,48.00
2019-03-29T15:09:31.582Z,47.90
2019-03-29T15:15:47.065Z,48.10
2019-03-29T15:18:39.943Z,48.20
2019-03-29T15:21:30.497Z,48.10
2019-03-29T15:24:16.049Z,48.20
2019-03-29T15:26:58.607Z,48.10
2019-03-29T15:29:30.223Z,48.10
2019-03-29T15:32:03.106Z,48.30
2019-03-29T15:34:40.998Z,48.10
2019-03-29T15:37:20.141Z,48.10
2019-03-29T15:39:56.147Z,48.10
2019-03-29T15:42:29.901Z,48.20
2019-03-29T15:45:01.397Z,48.40
2019-03-29T15:47:32.799Z,48.30
2019-03-29T15:50:12.590Z,48.30
2019-03-29T15:52:44.770Z,48.30
2019-03-29T15:55:26.367Z,48.40
2019-03-29T15:58:53.535Z,48.40
2019-03-29T16:02:39.878Z,48.50
2019-03-29T16:10:09.549Z,48.70
2019-03-29T16:13:07.746Z,49.10
2019-03-29T16:15:57.185Z,48.90
2019-03-29T16:18:31.365Z,49.00
2019-03-29T16:21:06.242Z,49.10
2019-03-29T16:23:50.727Z,49.20
2019-03-29T16:26:28.395Z,49.30
2019-03-29T16:28:56.132Z,49.50
2019-03-29T16:31:28.209Z,49.10
2019-03-29T16:34:37.179Z,49.10
2019-03-29T16:37:57.923Z,49.10
2019-03-29T16:40:40.075Z,49.10
2019-03-29T16:43:18.261Z,49.20
2019-03-29T16:45:55.992Z,49.70
2019-03-29T16:48:41.310Z,49.50
2019-03-29T16:51:44.855Z,50.00
2019-03-29T16:54:31.070Z,49.70
2019-03-29T16:58:02.081Z,50.10
2019-03-29T17:01:10.820Z,49.60
2019-03-29T17:04:31.828Z,50.20
2019-03-29T17:07:07.539Z,50.00
2019-03-29T17:10:37.162Z,50.50
2019-03-29T17:13:40.703Z,50.50
2019-03-29T17:16:47.298Z,50.70
2019-03-29T17:20:37.798Z,50.90
2019-03-29T17:23:11.384Z,50.90
2019-03-29T17:25:48.156Z,51.00
2019-03-29T17:28:27.780Z,51.20
2019-03-29T17:31:33.062Z,51.30
2019-03-29T17:34:13.762Z,51.40
2019-03-29T17:36:54.579Z,51.50
2019-03-29T17:39:53.871Z,51.50
2019-03-29T17:42:30.644Z,51.60
2019-03-29T17:45:08.911Z,51.70
2019-03-29T17:47:47.057Z,51.80
2019-03-29T17:50:28.456Z,51.90
2019-03-29T17:53:03.802Z,52.10
2019-03-29T17:55:40.253Z,52.00
2019-03-29T17:58:19.566Z,52.10
2019-03-29T18:00:51.582Z,52.20
2019-03-29T18:03:26.847Z,52.30
2019-03-29T18:06:06.005Z,52.50
2019-03-29T18:13:34.799Z,52.90
2019-03-29T18:30:05.439Z,53.30
2019-03-29T18:33:55.039Z,53.60
2019-03-29T18:53:04.012Z,54.80
2019-03-29T18:56:09.204Z,55.00
2019-03-29T18:59:17.316Z,55.40
2019-03-29T19:02:06.542Z,55.60
2019-03-29T19:04:41.019Z,55.70
2019-03-29T19:07:21.305Z,56.00
2019-03-29T19:10:12.903Z,56.30
2019-03-29T19:13:07.790Z,56.60
2019-03-29T19:16:24.612Z,56.70
2019-03-29T19:18:50.767Z,56.90
2019-03-29T19:25:34.538Z,57.40
2019-03-29T19:28:19.555Z,58.30
2019-03-29T19:36:18.422Z,58.40
2019-03-29T19:44:16.822Z,58.80
2019-03-29T19:47:13.557Z,58.80
2019-03-29T19:50:51.368Z,59.10
2019-03-29T19:54:07.311Z,59.40
2019-03-29T19:58:56.361Z,59.50
2019-03-29T20:05:50.537Z,59.90
2019-03-29T20:13:55.505Z,61.00
2019-03-29T20:21:49.858Z,60.50
2019-03-29T20:25:23.888Z,61.30
2019-03-29T20:33:24.420Z,61.00
2019-03-29T20:37:14.014Z,61.30
2019-03-29T20:40:32.222Z,61.30
2019-03-29T20:43:27.833Z,61.30
2019-03-29T20:46:10.053Z,61.60
2019-03-29T20:48:49.670Z,62.20
2019-03-29T21:17:09.555Z,63.30
2019-03-29T21:19:47.278Z,63.70
2019-03-29T21:23:02.161Z,64.00
2019-03-29T21:27:19.685Z,64.40
2019-03-29T21:30:25.086Z,64.40
2019-03-29T21:38:37.471Z,64.40
2019-03-29T21:59:33.374Z,65.00
2019-03-29T22:06:59.737Z,64.90
2019-03-29T22:09:36.751Z,65.00
2019-03-29T22:12:06.207Z,65.40
2019-03-29T22:14:45.498Z,65.60
2019-03-29T22:29:25.118Z,65.60
2019-03-29T22:32:04.650Z,65.80
2019-03-29T22:34:37.645Z,66.20
2019-03-29T22:37:12.360Z,66.30
2019-03-29T22:39:47.279Z,66.30
2019-03-29T22:42:21.308Z,66.30
2019-03-29T22:44:54.390Z,66.30
2019-03-29T22:48:52.513Z,66.40
2019-03-29T22:55:25.580Z,66.40
2019-03-29T22:57:59.162Z,66.30
2019-03-29T23:00:44.417Z,66.50
2019-03-29T23:03:24.434Z,67.70
2019-03-29T23:05:58.251Z,67.80
2019-03-29T23:08:33.278Z,67.90
2019-03-29T23:11:08.400Z,68.10
2019-03-29T23:14:30.315Z,68.20
2019-03-29T23:18:16.406Z,68.20
2019-03-29T23:20:52.741Z,68.20
2019-03-29T23:23:27.926Z,68.30
2019-03-29T23:26:02.659Z,68.40
2019-03-29T23:29:42.362Z,68.50
2019-03-29T23:32:14.203Z,68.60
2019-03-29T23:39:49.778Z,68.80
2019-03-29T23:42:24.636Z,68.80
2019-03-29T23:46:25.350Z,68.80
